Airfield :







YOU CAN JOIN US ON...

 
LOGIN :

Register | Disclaimer

   EN    FR    IT 

 









Legend :    VFR   Marginal VFR   IFR   Intensive IFR   Very Intensive IFR
Visi :
Ceiling :
>= 8 km
>= 3000ft
5 to 8 km
1000 to 3000 ft
1500m to 5 km
500 to 1000 ft
800 to 1500m
200 to 500 ft
< 800m
< 200 ft
Symbols :   Thunderstorms  Fog  Heavy snow  Heavy precipitations  Wind > 20 kt






- Airport Elevation : 827 ft


KDDH - William H. Morse State

CURRENT METAR :
  • 220354Z AUTO 01003KT 10SM VCTS -RA BKN037 OVC060 21/20 A2964 RMK AO2 LTG DSNT E AND SE TSE15 SLP030 T02060200 PNO $

EXPIRED METARs :
  • 220335Z AUTO 00000KT 7SM -RA SCT037 BKN046 OVC060 21/19 A2965 RMK AO2 LTG DSNT ALQDS TSE15 T02110194 PNO $
  • 220321Z AUTO 23005KT 5SM VCTS -RA BR SCT043 BKN055 OVC070 22/19 A2965 RMK AO2 LTG DSNT NE-SE TSE15 T02170194 PNO $
  • 220304Z AUTO 19008KT 3SM TSRA BR FEW012 BKN044 OVC070 21/19 A2965 RMK AO2 LTG DSNT ALQDS T02110194 PNO $
  • 220254Z AUTO 22009G20KT 1 1/4SM +TSRA BR FEW009 OVC030 21/20 A2963 RMK AO2 PK WND 23029/0229 WSHFT 0218 LTG DSNT ALQDS TSB33 SLP027 6//// T02110200 53024 PNO $
  • 220239Z AUTO 24012G21KT 1 1/2SM +TSRA BR FEW015 BKN029 OVC060 22/19 A2964 RMK AO2 PK WND 23029/0229 WSHFT 0218 VIS 3/4V5 LTG DSNT ALQDS TSB33 P0000 T02170194
  • 220233Z AUTO 26011G29KT 220V310 4SM -TSRA SCT022 BKN048 OVC065 22/19 A2963 RMK AO2 PK WND 23029/0229 WSHFT 0218 LTG DSNT ALQDS TSB33 PRESRR P0000 T02220194
  • 220215Z AUTO 19010G20KT 10SM VCTS -RA SCT060 SCT070 27/21 A2958 RMK AO2 LTG DSNT ALQDS P0000 T02670211
  • 220154Z AUTO 17009G17KT 10SM -RA FEW065 27/21 A2956 RMK AO2 LTG DSNT SW-N SLP002 P0000 T02670211

TAF N/A
KZBW FIR / North America



MET'MAP, your aeronautical weather chart ! - Copyright ORBIFLY December 2007 - Disclaimer

ORBIFLY MET'MAP TEAM :

Programming & Development : Alexandra Zaïnal
Concept & original design : Baudouin d'Aumeries
Assistance for programming : Marc-Olivier Méhu
Technical & hardware support : Manuel Goepfert

Contact : metmap@orbifly.com




SOURCES & CREDITS :

   NOAA